createdAt,value
2022-11-02T00:01:22.906Z,82.40
2022-11-02T00:03:55.164Z,82.11
2022-11-02T00:06:24.566Z,82.23
2022-11-02T00:08:52.578Z,82.37
2022-11-02T00:11:20.882Z,82.38
2022-11-02T00:13:48.892Z,82.38
2022-11-02T00:16:19.996Z,82.05
2022-11-02T00:18:53.266Z,82.46
2022-11-02T00:21:22.369Z,81.99
2022-11-02T00:23:55.047Z,82.31
2022-11-02T00:26:23.103Z,82.31
2022-11-02T00:28:51.387Z,81.71
2022-11-02T00:31:31.821Z,82.26
2022-11-02T00:33:59.864Z,82.12
2022-11-02T00:36:33.448Z,81.57
2022-11-02T00:39:04.908Z,81.49
2022-11-02T00:41:33.506Z,81.39
2022-11-02T00:44:01.470Z,81.29
2022-11-02T00:52:03.130Z,81.27
2022-11-02T00:54:34.167Z,81.08
2022-11-02T00:57:05.135Z,80.93
2022-11-02T00:59:35.049Z,80.78
2022-11-02T01:02:06.426Z,80.37
2022-11-02T01:04:36.564Z,80.67
2022-11-02T01:07:09.385Z,80.22
2022-11-02T01:09:39.685Z,80.05
2022-11-02T01:12:08.124Z,79.85
2022-11-02T01:14:51.044Z,79.35
2022-11-02T01:20:30.966Z,79.76
2022-11-02T01:23:05.555Z,79.53
2022-11-02T01:25:35.186Z,79.63
2022-11-02T01:28:03.369Z,79.81
2022-11-02T01:30:31.660Z,79.34
2022-11-02T01:33:01.638Z,79.05
2022-11-02T01:38:18.561Z,78.57
2022-11-02T01:40:46.463Z,78.90
2022-11-02T01:43:32.011Z,78.47
2022-11-02T01:46:14.728Z,78.71
2022-11-02T01:52:17.610Z,78.21
2022-11-02T01:55:09.695Z,78.53
2022-11-02T01:57:40.682Z,78.28
2022-11-02T02:00:14.036Z,78.27
2022-11-02T02:03:00.611Z,78.19
2022-11-02T02:05:30.001Z,78.38
2022-11-02T02:07:58.250Z,78.00
2022-11-02T02:10:26.117Z,77.85
2022-11-02T02:12:56.437Z,77.98
2022-11-02T02:15:36.145Z,77.98
2022-11-02T02:23:46.527Z,77.89
2022-11-02T02:29:21.577Z,78.10
2022-11-02T02:32:02.399Z,78.04
2022-11-02T02:34:52.107Z,78.21
2022-11-02T02:37:42.438Z,78.43
2022-11-02T02:40:46.631Z,77.92
2022-11-02T02:46:53.618Z,77.93
2022-11-02T02:49:36.353Z,78.58
2022-11-02T02:52:04.565Z,78.43
2022-11-02T02:54:41.399Z,78.25
2022-11-02T02:57:17.621Z,78.48
2022-11-02T02:59:50.691Z,78.76
2022-11-02T03:02:27.826Z,78.73
2022-11-02T03:07:54.642Z,78.43
2022-11-02T03:17:20.027Z,78.13
2022-11-02T03:29:15.389Z,78.44
2022-11-02T03:32:08.020Z,78.12
2022-11-02T03:34:56.219Z,78.55
2022-11-02T03:43:26.704Z,78.45
2022-11-02T03:45:59.904Z,78.74
2022-11-02T03:48:50.474Z,78.60
2022-11-02T03:51:25.612Z,78.65
2022-11-02T03:54:11.295Z,78.74
2022-11-02T03:56:48.041Z,78.76
2022-11-02T03:59:18.894Z,78.65
2022-11-02T04:01:51.320Z,78.90
2022-11-02T04:04:19.769Z,79.10
2022-11-02T04:06:51.889Z,79.25
2022-11-02T04:09:24.328Z,79.48
2022-11-02T04:12:13.668Z,79.46
2022-11-02T04:18:06.947Z,80.13
2022-11-02T04:20:38.299Z,80.34
2022-11-02T04:26:27.695Z,80.53
2022-11-02T04:29:15.357Z,80.43
2022-11-02T04:31:45.928Z,80.85
2022-11-02T04:34:13.942Z,81.01
2022-11-02T04:36:41.856Z,81.12
2022-11-02T04:39:12.801Z,81.06
2022-11-02T04:41:49.613Z,80.89
2022-11-02T04:55:59.880Z,81.65
2022-11-02T05:08:50.211Z,82.02
2022-11-02T05:11:19.755Z,81.95
2022-11-02T05:13:52.330Z,82.21
2022-11-02T05:16:20.215Z,82.64
2022-11-02T05:18:53.896Z,82.78
2022-11-02T05:21:33.040Z,82.96
2022-11-02T05:24:03.388Z,82.65
2022-11-02T05:26:33.419Z,82.78
2022-11-02T05:29:01.082Z,82.47
2022-11-02T05:31:39.100Z,82.46
2022-11-02T05:43:38.093Z,82.06
2022-11-02T05:46:15.261Z,81.94
2022-11-02T05:54:24.348Z,81.47
2022-11-02T05:56:52.342Z,81.17
2022-11-02T05:59:20.815Z,81.55
2022-11-02T06:02:02.180Z,81.71
2022-11-02T06:04:33.368Z,81.95
2022-11-02T06:30:25.871Z,82.46
2022-11-02T06:32:55.960Z,82.39
2022-11-02T06:35:25.809Z,82.95
2022-11-02T06:37:53.706Z,83.16
2022-11-02T06:40:25.731Z,82.76
2022-11-02T06:43:16.118Z,82.84
2022-11-02T06:45:49.190Z,82.93
2022-11-02T06:48:19.800Z,82.64
2022-11-02T06:50:48.049Z,82.97
2022-11-02T06:53:25.135Z,83.22
2022-11-02T06:58:54.747Z,83.24
2022-11-02T07:01:27.991Z,83.40
2022-11-02T07:03:57.065Z,83.27
2022-11-02T07:06:33.322Z,83.58
2022-11-02T07:09:03.201Z,83.87
2022-11-02T07:11:44.518Z,84.33
2022-11-02T07:14:14.698Z,83.82
2022-11-02T07:16:45.669Z,84.31
2022-11-02T07:19:13.101Z,84.42
2022-11-02T07:21:42.466Z,84.90
2022-11-02T07:24:12.656Z,84.73
2022-11-02T07:26:42.536Z,84.84
2022-11-02T07:29:23.196Z,84.84
2022-11-02T07:35:46.851Z,84.38
2022-11-02T07:38:14.584Z,84.54
2022-11-02T07:40:41.985Z,84.33
2022-11-02T07:43:14.321Z,84.29
2022-11-02T07:45:44.547Z,84.18
2022-11-02T07:48:12.094Z,84.07
2022-11-02T07:50:40.265Z,84.25
2022-11-02T07:53:12.568Z,84.30
2022-11-02T07:58:51.891Z,84.49
2022-11-02T08:01:19.823Z,85.08
2022-11-02T08:03:48.455Z,84.82
2022-11-02T08:06:29.223Z,85.08
2022-11-02T08:08:59.766Z,84.42
2022-11-02T08:11:27.520Z,84.75
2022-11-02T08:13:55.163Z,85.27
2022-11-02T08:16:25.565Z,84.92
2022-11-02T08:18:53.061Z,84.79
2022-11-02T08:21:20.528Z,85.30
2022-11-02T08:23:48.048Z,86.09
2022-11-02T08:26:18.386Z,85.97
2022-11-02T08:28:45.817Z,85.79
2022-11-02T08:31:17.399Z,85.72
2022-11-02T08:33:48.074Z,86.52
2022-11-02T08:36:18.028Z,86.38
2022-11-02T08:38:46.113Z,86.96
2022-11-02T08:41:20.990Z,86.23
2022-11-02T08:43:50.760Z,86.69
2022-11-02T08:46:27.817Z,87.08
2022-11-02T08:48:57.157Z,87.04
2022-11-02T08:51:26.580Z,87.43
2022-11-02T08:53:55.874Z,86.71
2022-11-02T11:24:46.981Z,83.02
2022-11-02T11:39:23.294Z,82.32
2022-11-02T11:50:51.389Z,81.64
2022-11-02T11:53:28.868Z,82.42
2022-11-02T11:56:04.665Z,82.33
2022-11-02T12:07:22.349Z,81.75
2022-11-02T12:10:10.089Z,82.24
2022-11-02T12:13:00.816Z,80.76
2022-11-02T12:15:55.794Z,81.77
2022-11-02T12:18:28.626Z,81.05
2022-11-02T12:21:42.507Z,80.88
2022-11-02T12:24:19.284Z,81.26
2022-11-02T12:27:10.376Z,80.90
2022-11-02T12:33:26.900Z,79.87
2022-11-02T12:53:45.811Z,79.31
2022-11-02T13:03:05.168Z,79.55
2022-11-02T13:06:00.363Z,78.61
2022-11-02T13:08:57.876Z,80.65
2022-11-02T13:12:06.565Z,79.28
2022-11-02T13:14:45.445Z,78.76
2022-11-02T13:17:45.774Z,78.99
2022-11-02T13:23:47.966Z,79.22
2022-11-02T13:26:43.549Z,78.32
2022-11-02T13:29:52.739Z,78.81
2022-11-02T13:33:00.619Z,78.68
2022-11-02T13:35:39.170Z,78.92
2022-11-02T13:38:41.046Z,78.39
2022-11-02T13:41:48.813Z,77.83
2022-11-02T13:44:28.068Z,78.24
2022-11-02T13:47:20.137Z,79.04
2022-11-02T13:49:55.165Z,79.20
2022-11-02T13:52:35.728Z,79.50
2022-11-02T13:55:06.037Z,79.29
2022-11-02T13:57:49.773Z,79.03
2022-11-02T14:03:17.538Z,78.69
2022-11-02T14:06:13.781Z,78.76
2022-11-02T14:08:56.830Z,78.54
2022-11-02T14:11:42.810Z,78.31
2022-11-02T14:14:35.981Z,78.18
2022-11-02T14:17:16.174Z,77.92
2022-11-02T14:19:51.573Z,78.07
2022-11-02T14:22:20.470Z,77.88
2022-11-02T14:24:49.495Z,78.27
2022-11-02T14:27:19.215Z,78.37
2022-11-02T14:29:46.882Z,78.40
2022-11-02T14:32:20.671Z,78.29
2022-11-02T14:35:18.505Z,77.68
2022-11-02T14:38:38.103Z,77.90
2022-11-02T14:41:27.276Z,78.41
2022-11-02T14:44:43.166Z,78.69
2022-11-02T14:47:16.013Z,79.11
2022-11-02T14:49:57.867Z,78.65
2022-11-02T14:52:54.989Z,78.81
2022-11-02T14:55:40.591Z,79.05
2022-11-02T14:58:31.924Z,79.11
2022-11-02T15:01:04.183Z,79.44
2022-11-02T15:03:42.391Z,79.78
2022-11-02T15:06:25.636Z,80.04
2022-11-02T15:09:05.109Z,80.60
2022-11-02T15:12:00.866Z,80.46
2022-11-02T15:17:13.930Z,80.63
2022-11-02T15:19:54.037Z,80.97
2022-11-02T15:28:33.501Z,82.03
2022-11-02T15:31:13.680Z,81.79
2022-11-02T15:33:59.876Z,81.77
2022-11-02T15:36:40.662Z,81.65
2022-11-02T15:39:11.437Z,82.16
2022-11-02T15:41:57.444Z,81.56
2022-11-02T15:44:52.081Z,82.08
2022-11-02T15:47:36.099Z,81.65
2022-11-02T15:50:26.424Z,81.45
2022-11-02T15:53:33.616Z,81.95
2022-11-02T15:56:13.204Z,81.86
2022-11-02T15:59:10.599Z,81.55
2022-11-02T16:01:42.019Z,81.09
2022-11-02T16:04:21.196Z,81.36
2022-11-02T16:06:50.244Z,81.03
2022-11-02T16:09:35.442Z,81.79
2022-11-02T16:12:17.735Z,81.27
2022-11-02T16:14:58.891Z,81.17
2022-11-02T16:17:31.074Z,81.35
2022-11-02T16:20:21.854Z,81.26
2022-11-02T16:22:51.324Z,81.68
2022-11-02T16:25:36.775Z,81.35
2022-11-02T16:28:25.482Z,81.34
2022-11-02T16:31:20.931Z,81.08
2022-11-02T16:33:58.077Z,81.28
2022-11-02T16:36:29.132Z,81.62
2022-11-02T16:39:21.208Z,81.96
2022-11-02T16:41:57.581Z,81.46
2022-11-02T16:44:32.025Z,81.92
2022-11-02T16:47:16.936Z,81.41
2022-11-02T16:50:02.981Z,81.67
2022-11-02T16:52:38.161Z,81.51
2022-11-02T16:55:46.691Z,81.59
2022-11-02T16:58:23.107Z,81.32
2022-11-02T17:03:53.776Z,81.38
2022-11-02T17:06:22.195Z,81.34
2022-11-02T17:08:56.589Z,81.72
2022-11-02T17:11:24.230Z,81.24
2022-11-02T17:14:01.027Z,81.53
2022-11-02T17:16:34.546Z,81.18
2022-11-02T17:19:04.838Z,81.40
2022-11-02T17:21:35.464Z,81.55
2022-11-02T17:24:31.800Z,81.43
2022-11-02T17:27:28.550Z,81.25
2022-11-02T17:29:58.322Z,80.93
2022-11-02T17:32:26.529Z,80.84
2022-11-02T17:34:58.085Z,80.66
2022-11-02T17:37:41.007Z,80.79
2022-11-02T17:40:12.762Z,81.03
2022-11-02T17:42:58.650Z,81.06
2022-11-02T17:45:39.219Z,80.98
2022-11-02T17:48:10.952Z,81.04
2022-11-02T17:50:43.850Z,80.83
2022-11-02T17:53:15.755Z,80.80
2022-11-02T17:55:45.364Z,80.89
2022-11-02T17:58:13.902Z,80.85
2022-11-02T18:00:42.086Z,81.13
2022-11-02T18:03:20.336Z,80.77
2022-11-02T18:05:52.521Z,80.61
2022-11-02T18:08:21.855Z,80.66
2022-11-02T18:10:56.155Z,80.49
2022-11-02T18:13:25.057Z,80.42
2022-11-02T18:15:52.505Z,80.42
2022-11-02T18:18:20.042Z,80.85
2022-11-02T18:20:47.437Z,81.34
2022-11-02T18:23:22.236Z,81.05
2022-11-02T18:25:51.806Z,81.22
2022-11-02T18:28:22.592Z,81.85
2022-11-02T18:30:50.063Z,81.89
2022-11-02T18:33:17.468Z,81.34
2022-11-02T18:35:45.411Z,81.83
2022-11-02T18:38:12.898Z,81.84
2022-11-02T18:40:40.420Z,81.71
2022-11-02T18:43:08.405Z,81.46
2022-11-02T18:45:36.091Z,81.64
2022-11-02T18:48:03.832Z,81.53
2022-11-02T18:50:31.561Z,81.50
2022-11-02T18:52:59.358Z,81.03
2022-11-02T18:55:27.103Z,81.23
2022-11-02T18:57:56.449Z,81.17
2022-11-02T19:00:24.190Z,81.33
2022-11-02T19:02:51.604Z,81.52
2022-11-02T19:05:37.848Z,81.62
2022-11-02T19:08:24.165Z,81.50
2022-11-02T19:10:52.072Z,81.31
2022-11-02T19:13:19.589Z,81.70
2022-11-02T19:15:46.915Z,81.87
2022-11-02T19:18:14.270Z,81.50
2022-11-02T19:20:41.740Z,81.06
2022-11-02T19:23:10.196Z,81.05
2022-11-02T19:25:37.882Z,80.68
2022-11-02T19:28:05.643Z,80.50
2022-11-02T19:30:33.163Z,80.58
2022-11-02T19:33:00.773Z,80.97
2022-11-02T19:35:28.180Z,80.52
2022-11-02T19:37:58.528Z,81.23
2022-11-02T19:40:26.164Z,80.85
2022-11-02T19:42:53.681Z,80.83
2022-11-02T19:45:21.191Z,80.64
2022-11-02T19:47:50.210Z,80.93
2022-11-02T19:50:20.619Z,80.71
2022-11-02T19:52:51.818Z,80.52
2022-11-02T19:55:22.794Z,80.97
2022-11-02T19:57:50.307Z,81.10
2022-11-02T20:00:18.054Z,80.99
2022-11-02T20:02:45.658Z,80.47
2022-11-02T20:05:14.691Z,80.42
2022-11-02T20:07:42.155Z,80.67
2022-11-02T20:10:10.095Z,80.45
2022-11-02T20:12:38.619Z,79.86
2022-11-02T20:15:10.918Z,80.30
2022-11-02T20:17:58.430Z,80.44
2022-11-02T20:20:25.986Z,79.96
2022-11-02T20:22:53.476Z,80.14
2022-11-02T20:25:20.968Z,80.41
2022-11-02T20:27:50.863Z,79.68
2022-11-02T20:30:19.502Z,80.08
2022-11-02T20:32:46.948Z,80.08
2022-11-02T20:35:22.242Z,79.59
2022-11-02T20:37:52.626Z,79.35
2022-11-02T20:40:20.036Z,79.69
2022-11-02T20:42:50.514Z,79.60
2022-11-02T20:45:18.967Z,78.86
2022-11-02T20:47:47.138Z,78.12
2022-11-02T20:50:17.511Z,77.74
2022-11-02T20:52:46.905Z,77.88
2022-11-02T20:55:14.410Z,78.04
2022-11-02T20:57:43.010Z,77.90
2022-11-02T21:00:11.685Z,77.93
2022-11-02T21:02:41.713Z,77.43
2022-11-02T21:05:09.770Z,77.66
2022-11-02T21:07:37.397Z,77.04
2022-11-02T21:10:06.055Z,77.66
2022-11-02T21:12:52.843Z,77.06
2022-11-02T21:15:20.366Z,77.06
2022-11-02T21:17:47.849Z,76.56
2022-11-02T21:20:35.128Z,76.58
2022-11-02T21:23:05.823Z,76.54
2022-11-02T21:25:33.843Z,77.24
2022-11-02T21:28:03.999Z,77.04
2022-11-02T21:30:34.637Z,77.17
2022-11-02T21:33:02.188Z,76.99
2022-11-02T21:35:29.592Z,76.81
2022-11-02T21:38:00.224Z,77.15
2022-11-02T21:40:31.151Z,76.94
2022-11-02T21:42:58.724Z,77.37
2022-11-02T21:45:26.536Z,77.13
2022-11-02T21:47:54.103Z,77.01
2022-11-02T21:50:21.665Z,76.72
2022-11-02T21:52:59.007Z,77.16
2022-11-02T21:55:26.456Z,77.10
2022-11-02T21:57:53.934Z,76.89
2022-11-02T22:00:21.379Z,77.17
2022-11-02T22:02:51.076Z,77.29
2022-11-02T22:05:38.484Z,77.30
2022-11-02T22:08:25.057Z,77.12
2022-11-02T22:10:58.185Z,77.67
2022-11-02T22:13:34.769Z,77.72
2022-11-02T22:16:25.346Z,78.10
2022-11-02T22:19:01.701Z,78.58
2022-11-02T22:21:36.473Z,78.31
2022-11-02T22:24:04.791Z,78.56
2022-11-02T22:26:35.369Z,79.30
2022-11-02T22:29:03.599Z,78.87
2022-11-02T22:31:34.619Z,78.58
2022-11-02T22:34:04.684Z,79.47
2022-11-02T22:36:37.230Z,80.05
2022-11-02T22:39:08.165Z,80.49
2022-11-02T22:41:43.849Z,80.52
2022-11-02T22:44:17.198Z,80.75
2022-11-02T22:46:47.840Z,81.22
2022-11-02T22:49:17.736Z,81.68
2022-11-02T22:51:48.899Z,82.04
2022-11-02T22:54:19.534Z,82.83
2022-11-02T22:56:51.436Z,83.06
2022-11-02T22:59:19.386Z,83.33
2022-11-02T23:01:46.914Z,83.23
2022-11-02T23:04:14.543Z,83.93
2022-11-02T23:06:42.060Z,84.38
2022-11-02T23:09:12.434Z,84.34
2022-11-02T23:11:39.879Z,84.47
2022-11-02T23:14:14.204Z,84.40
2022-11-02T23:16:47.208Z,84.57
2022-11-02T23:19:30.989Z,84.49
2022-11-02T23:22:23.176Z,84.21
2022-11-02T23:25:12.492Z,86.45
2022-11-02T23:28:13.526Z,86.18
2022-11-02T23:31:00.389Z,85.65
2022-11-02T23:33:33.996Z,86.23
2022-11-02T23:36:11.275Z,84.91
2022-11-02T23:39:08.051Z,84.26
2022-11-02T23:41:38.992Z,84.29
2022-11-02T23:44:12.831Z,84.48
2022-11-02T23:46:46.690Z,84.73
2022-11-02T23:49:17.799Z,84.06
2022-11-02T23:52:04.033Z,84.20
2022-11-02T23:54:50.159Z,84.01
2022-11-02T23:57:18.757Z,83.22
2022-11-02T23:59:46.248Z,83.12
